Time;durP1;ratioP1;P1;durP2;ratioP2;P2;SDS_P1;SDS_P2;PMS_P1;PMS_P2;Temp;Humidity;BMP_temperature;BMP_pressure;BME280_temperature;BME280_humidity;BME280_pressure;Samples;Min_cycle;Max_cycle;Signal;HPM_P1;HPM_P2
2024/02/11 00:01:09;;;;;;;3.58;3.05;;;;;;;12.14;100.00;99439.94;4872723;29;20043;-74
2024/02/11 00:03:37;;;;;;;3.08;2.70;;;;;;;12.32;100.00;99478.97;4869712;29;20052;-73
2024/02/11 00:06:08;;;;;;;4.07;3.30;;;;;;;11.82;100.00;99402.03;4868657;29;20044;-74
2024/02/11 00:08:34;;;;;;;4.35;3.35;;;;;;;12.06;100.00;99455.88;4865900;29;20189;-73
2024/02/11 00:11:00;;;;;;;3.22;2.47;;;;;;;12.07;100.00;99462.00;4869640;29;20049;-73
2024/02/11 00:13:27;;;;;;;4.82;2.33;;;;;;;11.68;100.00;99404.06;4873084;29;20037;-74
2024/02/11 00:15:52;;;;;;;5.60;2.97;;;;;;;11.78;100.00;99430.16;4873417;29;20036;-73
2024/02/11 00:18:19;;;;;;;10.77;3.90;;;;;;;12.06;100.00;99507.59;4870634;29;20060;-72
2024/02/11 00:20:45;;;;;;;4.53;4.05;;;;;;;12.00;100.00;99466.53;4871500;29;20053;-75
2024/02/11 00:23:12;;;;;;;2.95;2.67;;;;;;;12.29;100.00;99525.53;4869498;29;20406;-72
2024/02/11 00:25:39;;;;;;;3.22;2.92;;;;;;;12.40;100.00;99550.69;4867955;29;20040;-72
2024/02/11 00:28:06;;;;;;;2.67;1.70;;;;;;;12.21;100.00;99554.63;4869259;29;20040;-74
2024/02/11 00:30:32;;;;;;;3.92;2.80;;;;;;;11.63;100.00;99490.88;4872742;29;20084;-73
2024/02/11 00:32:58;;;;;;;11.65;4.97;;;;;;;11.93;100.00;99564.81;4873895;29;20080;-74
2024/02/11 00:35:24;;;;;;;6.88;4.38;;;;;;;11.69;100.00;99580.13;4873665;29;22775;-73
2024/02/11 00:37:49;;;;;;;4.35;2.97;;;;;;;11.88;100.00;99572.78;4869417;29;20057;-73
2024/02/11 00:40:16;;;;;;;11.85;7.30;;;;;;;11.92;100.00;99585.00;4871486;29;20041;-73
2024/02/11 00:42:44;;;;;;;3.42;2.20;;;;;;;11.92;100.00;99597.28;4868788;29;20412;-73
2024/02/11 00:45:12;;;;;;;6.13;3.95;;;;;;;11.88;100.00;99596.47;4867350;29;20057;-73
2024/02/11 00:47:40;;;;;;;3.03;2.72;;;;;;;11.81;100.00;99595.66;4868014;29;20173;-74
2024/02/11 00:50:07;;;;;;;8.77;3.60;;;;;;;11.74;100.00;99583.53;4869544;29;20512;-75
2024/02/11 00:52:33;;;;;;;6.07;5.57;;;;;;;11.44;100.00;99513.16;4869373;29;20033;-73
2024/02/11 00:54:59;;;;;;;4.63;3.70;;;;;;;11.97;100.00;99590.16;4869932;29;20532;-74
2024/02/11 00:57:25;;;;;;;4.60;4.18;;;;;;;11.95;100.00;99595.44;4868349;29;20466;-74
2024/02/11 00:59:50;;;;;;;4.68;4.22;;;;;;;11.88;100.00;99579.81;4871887;29;20056;-73
2024/02/11 01:02:16;;;;;;;3.53;3.28;;;;;;;12.01;100.00;99597.97;4861023;29;20516;-73
2024/02/11 01:04:42;;;;;;;2.65;2.45;;;;;;;11.64;100.00;99547.81;4854625;29;20085;-74
2024/02/11 01:07:07;;;;;;;29.25;5.22;;;;;;;12.01;100.00;99597.97;4870217;29;20036;-74
2024/02/11 01:09:33;;;;;;;4.57;4.18;;;;;;;11.92;100.00;99590.25;4865662;29;20472;-74
2024/02/11 01:11:59;;;;;;;5.40;3.60;;;;;;;11.85;100.00;99564.94;4866079;29;20075;-74
2024/02/11 01:14:25;;;;;;;3.90;3.53;;;;;;;11.51;100.00;99496.38;4869041;29;20514;-74
2024/02/11 01:16:50;;;;;;;4.10;2.85;;;;;;;11.95;100.00;99570.94;4870010;29;20092;-74
2024/02/11 01:19:16;;;;;;;4.03;3.45;;;;;;;12.03;100.00;99571.63;4873412;29;20045;-75
2024/02/11 01:21:43;;;;;;;5.07;2.88;;;;;;;12.15;100.00;99578.41;4868051;29;20208;-74
2024/02/11 01:24:09;;;;;;;2.70;1.73;;;;;;;11.66;100.00;99490.84;4865643;29;20072;-75
2024/02/11 01:26:36;;;;;;;2.33;2.00;;;;;;;12.01;100.00;99566.41;4868214;29;20147;-73
2024/02/11 01:29:04;;;;;;;2.72;2.03;;;;;;;11.88;100.00;99541.25;4867507;29;20056;-73
2024/02/11 01:31:29;;;;;;;5.18;3.55;;;;;;;12.05;100.00;99559.31;4867847;29;20053;-73
2024/02/11 01:33:55;;;;;;;2.45;2.28;;;;;;;12.15;100.00;99571.41;4866105;29;20081;-73
2024/02/11 01:36:22;;;;;;;1.35;1.27;;;;;;;12.21;100.00;99566.00;4868936;29;20049;-74
2024/02/11 01:38:47;;;;;;;1.70;1.60;;;;;;;12.25;100.00;99577.34;4849560;29;20048;-74
2024/02/11 01:41:13;;;;;;;4.15;3.13;;;;;;;12.23;100.00;99561.59;4871161;29;20048;-74
2024/02/11 01:43:38;;;;;;;2.38;2.00;;;;;;;12.00;100.00;99513.84;4873156;29;20072;-73
2024/02/11 01:46:05;;;;;;;3.30;2.28;;;;;;;12.24;100.00;99552.81;4871966;29;20036;-72
2024/02/11 01:48:32;;;;;;;3.00;2.78;;;;;;;11.74;100.00;99481.03;4871041;29;20056;-73
2024/02/11 01:50:58;;;;;;;3.80;1.20;;;;;;;12.31;100.00;99566.69;4866406;29;20741;-72
2024/02/11 01:53:27;;;;;;;1.58;1.40;;;;;;;11.85;100.00;99486.09;4870846;29;20049;-73
2024/02/11 01:55:53;;;;;;;1.65;1.55;;;;;;;12.20;100.00;99566.91;4866928;29;20153;-73
2024/02/11 01:58:19;;;;;;;1.38;0.57;;;;;;;12.12;100.00;99555.66;4866513;29;20028;-72
2024/02/11 02:00:45;;;;;;;2.65;1.33;;;;;;;12.14;100.00;99551.25;4868228;29;20047;-73
2024/02/11 02:03:12;;;;;;;0.68;0.60;;;;;;;12.00;100.00;99519.09;4867914;29;20077;-73
2024/02/11 02:05:38;;;;;;;1.60;1.50;;;;;;;12.13;100.00;99535.53;4863712;29;20092;-73
2024/02/11 02:08:06;;;;;;;3.28;1.55;;;;;;;12.23;100.00;99544.94;4868821;29;20056;-73
2024/02/11 02:10:31;;;;;;;3.10;1.65;;;;;;;11.71;100.00;99462.72;4848658;29;20417;-73
2024/02/11 02:12:57;;;;;;;1.77;1.23;;;;;;;12.20;100.00;99548.50;4869757;29;20040;-73
2024/02/11 02:15:24;;;;;;;4.13;1.95;;;;;;;12.20;100.00;99548.50;4869779;29;20056;-73
2024/02/11 02:17:50;;;;;;;6.57;1.25;;;;;;;11.79;100.00;99457.28;4873628;29;20379;-73
2024/02/11 02:20:16;;;;;;;1.20;0.98;;;;;;;11.80;100.00;99441.50;4873302;29;20423;-72
2024/02/11 02:22:43;;;;;;;2.15;1.35;;;;;;;12.39;100.00;99524.44;4873089;29;20091;-74
2024/02/11 02:25:09;;;;;;;0.77;0.77;;;;;;;12.14;100.00;99458.34;4874528;29;20037;-73
2024/02/11 02:27:37;;;;;;;2.28;1.55;;;;;;;12.00;100.00;99434.97;4874642;29;20136;-72
2024/02/11 02:30:04;;;;;;;1.05;0.95;;;;;;;12.54;100.00;99505.66;4856100;29;20526;-74
2024/02/11 02:32:30;;;;;;;0.55;0.55;;;;;;;12.45;100.00;99501.50;4870848;29;20101;-73
2024/02/11 02:34:55;;;;;;;9.07;2.05;;;;;;;12.78;100.00;99516.53;4871524;29;20089;-72
2024/02/11 02:37:21;;;;;;;0.77;0.65;;;;;;;12.11;100.00;99393.53;4870755;29;20147;-73
2024/02/11 02:39:46;;;;;;;1.48;1.38;;;;;;;12.71;100.00;99499.16;4870747;29;20183;-74
2024/02/11 02:42:12;;;;;;;2.53;1.70;;;;;;;12.29;100.00;99436.09;4854728;29;20080;-75
2024/02/11 02:44:37;;;;;;;1.17;1.08;;;;;;;12.67;100.00;99503.63;4870117;29;20064;-74
2024/02/11 02:47:03;;;;;;;5.18;2.40;;;;;;;12.13;100.00;99415.41;4869281;29;20643;-73
2024/02/11 02:49:29;;;;;;;1.75;1.40;;;;;;;12.20;100.00;99411.75;4870903;29;20041;-73
2024/02/11 02:52:01;;;;;;;2.20;1.25;;;;;;;12.64;100.00;99488.78;4870491;29;20545;-74
2024/02/11 02:54:27;;;;;;;1.13;0.50;;;;;;;12.77;100.00;99507.78;4873201;29;20049;-74
2024/02/11 02:56:53;;;;;;;1.42;1.33;;;;;;;12.46;100.00;99470.78;4859910;29;20514;-74
2024/02/11 02:59:18;;;;;;;1.85;1.75;;;;;;;12.07;100.00;99406.78;4859080;29;20077;-74
2024/02/11 03:01:46;;;;;;;1.85;1.17;;;;;;;12.60;100.00;99492.38;4853875;29;20372;-73
2024/02/11 03:04:13;;;;;;;3.15;2.25;;;;;;;12.52;100.00;99496.06;4871157;29;20666;-73
2024/02/11 03:06:40;;;;;;;9.48;1.85;;;;;;;11.86;100.00;99373.91;4854828;29;20070;-73
2024/02/11 03:09:07;;;;;;;6.47;3.38;;;;;;;12.61;100.00;99483.56;4852343;29;20410;-73
2024/02/11 03:11:39;;;;;;;2.17;1.90;;;;;;;12.47;100.00;99464.59;4848216;29;20065;-73
2024/02/11 03:14:05;;;;;;;0.40;0.40;;;;;;;12.41;100.00;99496.34;4854432;29;20054;-75
2024/02/11 03:16:30;;;;;;;2.40;1.95;;;;;;;11.95;100.00;99398.28;4851152;29;20394;-73
2024/02/11 03:18:56;;;;;;;1.90;1.45;;;;;;;11.96;100.00;99396.50;4854434;29;20090;-73
2024/02/11 03:21:21;;;;;;;4.38;2.92;;;;;;;12.49;100.00;99483.00;4849896;29;20779;-73
2024/02/11 03:23:47;;;;;;;1.63;1.48;;;;;;;12.48;100.00;99483.88;4847067;29;20080;-73
2024/02/11 03:26:12;;;;;;;2.35;1.55;;;;;;;12.03;100.00;99405.97;4850287;29;20069;-73
2024/02/11 03:28:39;;;;;;;2.50;1.70;;;;;;;11.95;100.00;99407.94;4851277;29;20476;-73
2024/02/11 03:31:05;;;;;;;0.82;0.70;;;;;;;11.81;100.00;99374.03;4853598;29;20755;-73
2024/02/11 03:33:31;;;;;;;2.00;1.60;;;;;;;12.27;100.00;99453.66;4853441;29;20065;-73
2024/02/11 03:35:57;;;;;;;4.13;1.20;;;;;;;11.87;100.00;99360.78;4853388;29;20057;-73
2024/02/11 03:38:26;;;;;;;1.10;0.60;;;;;;;12.26;100.00;99434.41;4848081;29;20049;-74
2024/02/11 03:40:53;;;;;;;0.88;0.88;;;;;;;12.41;100.00;99444.56;4852208;29;20656;-75
2024/02/11 03:43:21;;;;;;;0.50;0.50;;;;;;;12.21;100.00;99410.81;4855133;29;20426;-73
2024/02/11 03:45:48;;;;;;;0.80;0.80;;;;;;;12.37;100.00;99423.63;4868438;29;20037;-74
2024/02/11 03:48:14;;;;;;;2.00;1.38;;;;;;;11.66;100.00;99298.13;4852365;29;20077;-74
2024/02/11 03:50:40;;;;;;;13.45;1.55;;;;;;;12.25;100.00;99386.19;4853703;29;20451;-74
2024/02/11 03:53:06;;;;;;;1.38;1.02;;;;;;;12.48;100.00;99434.78;4855052;29;20049;-73
2024/02/11 03:55:32;;;;;;;1.20;1.10;;;;;;;12.29;100.00;99438.72;4855596;29;20106;-73
2024/02/11 03:58:04;;;;;;;1.20;1.08;;;;;;;12.23;100.00;99409.03;4868383;29;20021;-73
2024/02/11 04:00:30;;;;;;;1.80;1.70;;;;;;;11.61;100.00;99328.03;4872966;29;20045;-74
2024/02/11 04:03:00;;;;;;;3.08;2.47;;;;;;;11.70;100.00;99357.63;4869219;29;20085;-73
2024/02/11 04:05:28;;;;;;;1.25;1.17;;;;;;;11.96;100.00;99365.84;4871286;29;20112;-73
2024/02/11 04:07:55;;;;;;;1.50;1.25;;;;;;;11.71;100.00;99327.81;4871791;29;20588;-73
2024/02/11 04:10:23;;;;;;;5.53;1.85;;;;;;;11.75;100.00;99321.56;4868725;29;20037;-73
2024/02/11 04:12:53;;;;;;;1.85;1.75;;;;;;;12.10;100.00;99369.91;4873542;29;20810;-75
2024/02/11 04:15:19;;;;;;;4.13;3.72;;;;;;;11.90;100.00;99312.53;4867884;29;20060;-73
2024/02/11 04:17:49;;;;;;;4.15;3.47;;;;;;;12.46;100.00;99421.66;4870018;29;20615;-75
2024/02/11 04:20:28;;;;;;;2.70;2.42;;;;;;;12.39;100.00;99414.81;4871803;29;20057;-73
2024/02/11 04:22:58;;;;;;;4.65;3.60;;;;;;;12.22;100.00;99390.66;4868242;29;20056;-72
2024/02/11 04:25:30;;;;;;;5.00;4.13;;;;;;;12.16;100.00;99402.19;4869532;29;20102;-74
2024/02/11 04:27:57;;;;;;;4.13;2.92;;;;;;;12.34;100.00;99435.09;4869557;29;20037;-74
2024/02/11 04:30:22;;;;;;;6.05;3.63;;;;;;;11.69;100.00;99333.09;4870552;29;20057;-73
2024/02/11 04:32:48;;;;;;;6.90;4.05;;;;;;;12.38;100.00;99436.75;4870732;29;20132;-74
2024/02/11 04:35:16;;;;;;;4.75;4.38;;;;;;;11.84;100.00;99338.00;4872496;29;20053;-74
2024/02/11 04:37:49;;;;;;;4.07;2.70;;;;;;;11.96;100.00;99391.25;4870779;29;20049;-74
2024/02/11 04:40:17;;;;;;;12.15;3.10;;;;;;;11.64;100.00;99334.13;4868048;29;20049;-74
2024/02/11 04:42:45;;;;;;;5.15;3.45;;;;;;;11.76;100.00;99342.59;4869014;29;20037;-73
2024/02/11 04:45:18;;;;;;;3.92;2.20;;;;;;;12.18;100.00;99410.91;4871075;29;20057;-73
2024/02/11 04:47:45;;;;;;;2.38;2.17;;;;;;;11.61;100.00;99312.25;4869558;29;20057;-73
2024/02/11 04:50:13;;;;;;;4.38;2.88;;;;;;;12.08;100.00;99377.84;4864588;29;20121;-74
2024/02/11 04:52:39;;;;;;;4.13;3.20;;;;;;;12.09;100.00;99386.59;4869964;29;20061;-73
2024/02/11 04:55:06;;;;;;;7.95;3.17;;;;;;;12.13;100.00;99385.63;4870555;29;20148;-74
2024/02/11 04:57:38;;;;;;;2.67;2.47;;;;;;;12.18;100.00;99381.13;4869088;29;20140;-73
2024/02/11 05:00:23;;;;;;;1.65;1.40;;;;;;;11.80;100.00;99312.72;4869205;29;21172;-73
2024/02/11 05:02:50;;;;;;;5.00;1.58;;;;;;;12.27;100.00;99395.78;4872064;29;20394;-73
2024/02/11 05:05:18;;;;;;;4.13;2.00;;;;;;;11.58;100.00;99306.19;4869731;29;20144;-74
2024/02/11 05:07:44;;;;;;;2.50;1.48;;;;;;;11.90;100.00;99344.09;4868833;29;20059;-73
2024/02/11 05:10:11;;;;;;;2.55;2.30;;;;;;;11.50;100.00;99316.03;4869082;29;20528;-73
2024/02/11 05:12:37;;;;;;;0.30;0.30;;;;;;;12.11;100.00;99411.09;4870757;29;20136;-74
2024/02/11 05:15:04;;;;;;;1.58;1.48;;;;;;;11.98;100.00;99402.59;4866665;29;20060;-73
2024/02/11 05:17:30;;;;;;;5.80;2.08;;;;;;;12.07;100.00;99427.81;4876125;29;20491;-73
2024/02/11 05:19:55;;;;;;;4.63;2.55;;;;;;;10.95;100.00;99252.38;4872728;29;20132;-75
2024/02/11 05:22:25;;;;;;;1.83;0.77;;;;;;;12.00;100.00;99427.09;4870069;29;20071;-73
2024/02/11 05:24:52;;;;;;;2.95;2.15;;;;;;;11.99;100.00;99425.38;4866998;29;20037;-73
2024/02/11 05:27:18;;;;;;;5.70;2.45;;;;;;;11.56;100.00;99360.53;4868067;29;20663;-73
2024/02/11 05:29:44;;;;;;;2.05;1.85;;;;;;;11.28;100.00;99342.72;4868508;29;20456;-73
2024/02/11 05:32:11;;;;;;;1.15;1.00;;;;;;;11.44;100.00;99363.41;4870224;29;20063;-73
2024/02/11 05:34:38;;;;;;;9.60;2.28;;;;;;;11.75;100.00;99426.69;4868012;29;20048;-74
2024/02/11 05:37:07;;;;;;;3.33;1.58;;;;;;;11.56;100.00;99402.56;4872943;29;20045;-72
2024/02/11 05:39:36;;;;;;;2.35;1.73;;;;;;;11.10;100.00;99343.97;4868271;29;20164;-72
2024/02/11 05:42:09;;;;;;;1.17;0.95;;;;;;;11.62;100.00;99432.22;4869097;29;20049;-74
2024/02/11 05:44:35;;;;;;;3.53;2.03;;;;;;;11.25;100.00;99371.66;4868618;29;20052;-73
2024/02/11 05:47:01;;;;;;;1.45;1.35;;;;;;;11.13;100.00;99345.66;4869853;29;20056;-73
2024/02/11 05:49:26;;;;;;;2.00;1.70;;;;;;;10.97;100.00;99324.94;4870148;29;20048;-74
2024/02/11 05:51:52;;;;;;;1.88;0.85;;;;;;;11.04;100.00;99335.31;4868793;29;20128;-74
2024/02/11 05:54:18;;;;;;;2.38;2.17;;;;;;;11.80;100.00;99454.63;4865515;29;20088;-73
2024/02/11 05:56:49;;;;;;;3.17;2.05;;;;;;;11.70;100.00;99447.81;4869965;29;20138;-75
2024/02/11 05:59:14;;;;;;;0.80;0.80;;;;;;;11.71;100.00;99423.28;4865136;29;20159;-75
2024/02/11 06:01:40;;;;;;;1.42;1.33;;;;;;;11.39;100.00;99342.50;4867141;29;20690;-74
2024/02/11 06:04:06;;;;;;;1.52;1.42;;;;;;;11.99;100.00;99449.91;4867212;29;20045;-74
2024/02/11 06:06:31;;;;;;;2.05;1.65;;;;;;;12.03;100.00;99438.41;4866894;29;20060;-74
2024/02/11 06:08:57;;;;;;;2.25;1.05;;;;;;;11.59;100.00;99363.97;4869649;29;20862;-74
2024/02/11 06:11:28;;;;;;;0.95;0.75;;;;;;;11.46;100.00;99332.72;4869567;29;20561;-74
2024/02/11 06:13:55;;;;;;;1.33;1.15;;;;;;;12.17;100.00;99439.84;4868179;29;20087;-73
2024/02/11 06:16:21;;;;;;;1.58;1.00;;;;;;;11.87;100.00;99379.19;4870888;29;20068;-74
2024/02/11 06:18:47;;;;;;;0.80;0.75;;;;;;;11.62;100.00;99342.88;4867511;29;20044;-72
2024/02/11 06:21:12;;;;;;;1.00;0.77;;;;;;;11.72;100.00;99345.31;4866719;29;20045;-74
2024/02/11 06:23:41;;;;;;;1.52;1.35;;;;;;;11.99;100.00;99388.56;4866567;29;20482;-75
2024/02/11 06:26:06;;;;;;;1.38;1.27;;;;;;;11.91;100.00;99366.81;4871555;29;20079;-75
2024/02/11 06:28:33;;;;;;;0.28;0.28;;;;;;;11.75;100.00;99340.88;4869910;29;20041;-74
2024/02/11 06:31:00;;;;;;;1.15;1.02;;;;;;;12.41;100.00;99448.97;4869321;29;20040;-74
2024/02/11 06:33:26;;;;;;;0.45;0.45;;;;;;;12.45;100.00;99455.88;4869229;29;20101;-74
2024/02/11 06:35:52;;;;;;;1.35;1.25;;;;;;;12.55;100.00;99457.41;4870626;29;20368;-74
2024/02/11 06:38:17;;;;;;;3.45;2.05;;;;;;;12.59;100.00;99451.16;4868298;29;20041;-82
2024/02/11 06:40:43;;;;;;;2.80;2.60;;;;;;;12.08;100.00;99350.66;4868681;29;20151;-74
2024/02/11 06:43:11;;;;;;;1.73;0.95;;;;;;;12.28;100.00;99372.09;4865930;29;20093;-74
2024/02/11 06:45:40;;;;;;;0.65;0.65;;;;;;;12.57;100.00;99413.50;4866426;29;20133;-75
2024/02/11 06:48:08;;;;;;;0.82;0.77;;;;;;;12.77;100.00;99443.75;4870288;29;20053;-75
2024/02/11 06:50:34;;;;;;;1.52;1.38;;;;;;;12.49;100.00;99389.13;4870036;29;20050;-73
2024/02/11 06:53:00;;;;;;;0.85;0.85;;;;;;;12.37;100.00;99357.88;4870807;29;20332;-74
2024/02/11 06:55:25;;;;;;;1.20;0.85;;;;;;;12.55;100.00;99378.47;4869469;29;20513;-73
2024/02/11 06:57:51;;;;;;;0.82;0.75;;;;;;;13.13;100.00;99455.09;4869643;29;20702;-74
2024/02/11 07:00:20;;;;;;;2.95;2.15;;;;;;;13.25;100.00;99449.53;4867501;29;20053;-74
2024/02/11 07:02:52;;;;;;;1.88;1.73;;;;;;;13.22;100.00;99448.72;4871889;29;20108;-74
2024/02/11 07:05:19;;;;;;;2.60;2.35;;;;;;;12.74;100.00;99356.97;4874335;29;20501;-74
2024/02/11 07:07:45;;;;;;;1.02;0.93;;;;;;;12.81;100.00;99351.47;4871642;29;20079;-75
2024/02/11 07:10:12;;;;;;;0.82;0.82;;;;;;;13.33;100.00;99438.81;4874276;29;20474;-76
2024/02/11 07:12:39;;;;;;;2.35;1.55;;;;;;;13.38;100.00;99423.72;4871344;29;20116;-76
2024/02/11 07:15:05;;;;;;;1.90;1.73;;;;;;;13.59;100.00;99440.72;4842792;29;20581;-75
2024/02/11 07:17:32;;;;;;;0.47;0.47;;;;;;;13.27;100.00;99392.44;4862182;29;20204;-75
2024/02/11 07:19:58;;;;;;;1.45;1.10;;;;;;;13.59;100.00;99421.41;4872734;29;20092;-75
2024/02/11 07:22:27;;;;;;;12.90;2.00;;;;;;;13.37;100.00;99366.69;4871309;29;20800;-75
2024/02/11 07:24:52;;;;;;;0.95;0.88;;;;;;;13.92;100.00;99438.88;4864325;29;20037;-75
2024/02/11 07:27:19;;;;;;;4.20;2.72;;;;;;;13.50;100.00;99356.63;4873523;29;20129;-74
2024/02/11 07:29:44;;;;;;;1.13;1.02;;;;;;;14.11;100.00;99449.75;4868694;29;20068;-76
2024/02/11 07:32:10;;;;;;;1.65;1.45;;;;;;;14.25;100.00;99451.97;4871787;29;20866;-77
2024/02/11 07:34:38;;;;;;;4.53;1.80;;;;;;;14.23;100.00;99437.09;4870815;29;20041;-76
2024/02/11 07:37:03;;;;;;;1.00;0.93;;;;;;;14.31;100.00;99427.19;4867016;29;20120;-77
2024/02/11 07:39:29;;;;;;;2.75;2.53;;;;;;;14.38;100.00;99431.34;4878569;29;20064;-76
2024/02/11 07:41:55;;;;;;;2.03;1.45;;;;;;;14.38;100.00;99431.34;4835656;29;20279;-73
2024/02/11 07:44:21;;;;;;;2.30;1.38;;;;;;;14.61;100.00;99454.44;4870085;29;20191;-73
2024/02/11 07:46:47;;;;;;;1.92;0.80;;;;;;;14.70;100.00;99461.16;4868148;29;20525;-75
2024/02/11 07:49:13;;;;;;;1.75;1.05;;;;;;;14.75;100.00;99452.19;4870996;29;20084;-85
2024/02/11 07:51:44;;;;;;;1.55;1.13;;;;;;;14.81;100.00;99442.34;4870072;29;20053;-83
2024/02/11 07:54:11;;;;;;;1.38;1.27;;;;;;;14.86;100.00;99433.34;4867655;29;20076;-80
2024/02/11 07:56:38;;;;;;;2.17;1.98;;;;;;;14.49;100.00;99362.38;4868733;29;20089;-82
2024/02/11 07:59:04;;;;;;;0.75;0.75;;;;;;;14.34;100.00;99325.00;4854306;29;20057;-82
2024/02/11 08:01:33;;;;;;;0.50;0.50;;;;;;;14.57;98.28;99341.91;4869359;29;20167;-82
2024/02/11 08:04:00;;;;;;;0.73;0.57;;;;;;;14.75;97.98;99351.00;4868973;29;20045;-82
2024/02/11 08:06:26;;;;;;;1.48;1.20;;;;;;;15.11;95.37;99408.75;4867736;29;20181;-83
2024/02/11 08:08:52;;;;;;;2.60;1.20;;;;;;;15.29;93.88;99420.44;4871382;29;20597;-84
2024/02/11 08:11:19;;;;;;;2.08;1.17;;;;;;;15.48;94.09;99453.25;4870017;29;20694;-81
2024/02/11 08:13:44;;;;;;;0.45;0.40;;;;;;;15.11;92.20;99369.97;4874937;29;20477;-81
2024/02/11 08:16:12;;;;;;;2.58;0.98;;;;;;;15.72;89.41;99448.03;4867626;29;20053;-85
2024/02/11 08:18:42;;;;;;;1.00;0.80;;;;;;;15.72;88.46;99432.16;4872457;29;20049;-73
2024/02/11 08:21:09;;;;;;;1.52;1.42;;;;;;;15.43;87.68;99369.72;4871553;29;20465;-77
2024/02/11 08:23:34;;;;;;;2.85;1.67;;;;;;;15.16;87.30;99309.03;4856100;29;20051;-77
2024/02/11 08:26:01;;;;;;;1.08;0.98;;;;;;;15.80;87.44;99424.78;4867485;29;20054;-78
2024/02/11 08:28:27;;;;;;;0.60;0.60;;;;;;;15.88;87.42;99440.38;4868353;29;20133;-79
2024/02/11 08:30:53;;;;;;;7.55;2.50;;;;;;;15.39;88.54;99359.25;4869627;29;20556;-81
2024/02/11 08:33:20;;;;;;;1.60;1.50;;;;;;;16.03;89.22;99439.78;4863431;29;20052;-75
2024/02/11 08:35:47;;;;;;;1.27;1.17;;;;;;;16.14;89.62;99448.19;4870347;29;20201;-74
2024/02/11 08:38:13;;;;;;;0.47;0.40;;;;;;;16.18;89.51;99451.59;4867858;29;20144;-73
2024/02/11 08:40:39;;;;;;;1.27;1.17;;;;;;;16.33;88.69;99442.19;4868721;29;20122;-74
2024/02/11 08:43:05;;;;;;;0.93;0.82;;;;;;;16.15;88.97;99415.50;4869896;29;20113;-73
2024/02/11 08:45:31;;;;;;;0.73;0.43;;;;;;;16.12;89.67;99365.34;4855962;29;20056;-73
2024/02/11 08:47:57;;;;;;;0.38;0.32;;;;;;;16.64;88.55;99436.53;4871041;29;20172;-73
2024/02/11 08:50:25;;;;;;;1.38;0.65;;;;;;;16.35;86.78;99382.09;4868077;29;20064;-73
2024/02/11 08:52:50;;;;;;;2.10;1.40;;;;;;;16.65;85.51;99377.34;4873111;29;20139;-74
2024/02/11 08:55:18;;;;;;;0.70;0.70;;;;;;;16.94;85.88;99402.63;4870841;29;20087;-74
2024/02/11 08:57:47;;;;;;;0.30;0.30;;;;;;;17.22;83.47;99457.97;4855220;29;20413;-75
2024/02/11 09:00:18;;;;;;;0.75;0.70;;;;;;;17.13;83.94;99458.38;4860593;29;20098;-75
2024/02/11 09:02:46;;;;;;;0.55;0.52;;;;;;;17.23;84.05;99459.72;4865048;29;20032;-73
2024/02/11 09:05:12;;;;;;;0.38;0.38;;;;;;;16.99;84.59;99418.34;4870106;29;20081;-74
2024/02/11 09:07:38;;;;;;;4.93;1.85;;;;;;;17.26;85.27;99451.63;4870293;29;20192;-76
2024/02/11 09:10:05;;;;;;;1.30;0.50;;;;;;;16.85;84.46;99384.47;4865960;29;20517;-76
2024/02/11 09:12:31;;;;;;;1.38;0.60;;;;;;;16.84;84.71;99386.25;4866754;29;20603;-75
2024/02/11 09:14:57;;;;;;;1.35;1.17;;;;;;;16.99;84.48;99392.69;4868364;29;20501;-76
2024/02/11 09:17:25;;;;;;;0.40;0.40;;;;;;;16.98;82.56;99377.72;4871058;29;20778;-75
2024/02/11 09:19:52;;;;;;;10.63;1.95;;;;;;;17.48;81.85;99470.09;4869208;29;20417;-75
2024/02/11 09:22:18;;;;;;;0.50;0.45;;;;;;;17.39;80.48;99441.34;4872800;29;20136;-76
2024/02/11 09:24:44;;;;;;;0.75;0.70;;;;;;;17.63;80.26;99435.88;4870066;29;20053;-75
2024/02/11 09:27:13;;;;;;;5.72;2.83;;;;;;;17.47;79.17;99423.31;4874566;29;20121;-75
2024/02/11 09:29:39;;;;;;;0.73;0.73;;;;;;;17.64;78.21;99445.56;4873800;29;20492;-75
2024/02/11 09:32:05;;;;;;;0.70;0.70;;;;;;;17.30;76.80;99399.31;4876996;29;20060;-75
2024/02/11 09:34:31;;;;;;;1.90;1.10;;;;;;;17.69;77.41;99447.06;4862937;29;20130;-75
2024/02/11 09:36:57;;;;;;;0.20;0.20;;;;;;;17.73;77.25;99447.81;4869647;29;20966;-75
2024/02/11 09:39:22;;;;;;;5.68;2.05;;;;;;;17.21;75.92;99362.63;4870458;29;20064;-76
2024/02/11 09:41:48;;;;;;;0.65;0.65;;;;;;;17.69;75.28;99446.22;4872966;29;20498;-75
2024/02/11 09:44:17;;;;;;;0.73;0.43;;;;;;;17.67;73.94;99448.06;4871927;29;20097;-75
2024/02/11 09:46:45;;;;;;;3.92;1.40;;;;;;;17.07;73.27;99336.72;4871936;29;20049;-76
2024/02/11 09:49:15;;;;;;;1.20;0.80;;;;;;;17.31;74.03;99369.22;4872149;29;20578;-75
2024/02/11 09:51:41;;;;;;;5.30;1.17;;;;;;;17.48;74.77;99413.56;4870169;29;20466;-75
2024/02/11 09:54:07;;;;;;;0.55;0.55;;;;;;;16.98;72.93;99330.03;4873350;29;20750;-75
2024/02/11 09:56:33;;;;;;;0.50;0.50;;;;;;;17.48;72.72;99430.31;4875278;29;20064;-75
2024/02/11 09:58:59;;;;;;;0.20;0.20;;;;;;;17.40;72.44;99408.59;4870194;29;20037;-74
2024/02/11 10:01:25;;;;;;;3.40;2.17;;;;;;;17.27;72.54;99392.34;4871964;29;20208;-76
2024/02/11 10:03:57;;;;;;;1.42;1.25;;;;;;;17.51;72.51;99429.31;4870969;29;20061;-76
2024/02/11 10:06:43;;;;;;;1.30;1.20;;;;;;;17.58;72.32;99428.13;4864914;29;20097;-74
2024/02/11 10:09:12;;;;;;;1.08;0.52;;;;;;;17.18;73.81;99322.97;4868975;29;20521;-76
2024/02/11 10:11:41;;;;;;;0.88;0.52;;;;;;;17.56;72.46;99408.78;4870633;29;20136;-75
2024/02/11 10:14:15;;;;;;;3.47;0.70;;;;;;;17.64;72.00;99400.47;4870571;29;20513;-75
2024/02/11 10:16:41;;;;;;;2.20;1.15;;;;;;;17.63;71.48;99388.13;4871555;29;20484;-76
2024/02/11 10:19:07;;;;;;;3.13;2.72;;;;;;;17.69;72.21;99369.28;4851796;29;20057;-75
2024/02/11 10:21:36;;;;;;;6.72;2.17;;;;;;;17.60;72.03;99372.34;4871475;29;20132;-74
2024/02/11 10:24:03;;;;;;;1.38;1.27;;;;;;;17.64;70.98;99385.41;4871540;29;20056;-74
2024/02/11 10:26:31;;;;;;;0.52;0.52;;;;;;;17.59;71.08;99363.53;4870539;29;20144;-75
2024/02/11 10:29:02;;;;;;;1.52;1.42;;;;;;;17.28;70.52;99311.91;4868969;29;20184;-76
2024/02/11 10:31:29;;;;;;;2.45;2.25;;;;;;;17.13;70.74;99293.16;4867677;29;20778;-76
2024/02/11 10:33:57;;;;;;;0.20;0.20;;;;;;;17.54;72.15;99365.53;4870603;29;20056;-74
2024/02/11 10:36:24;;;;;;;0.85;0.85;;;;;;;16.88;69.93;99259.81;4870060;29;20159;-76
2024/02/11 10:38:52;;;;;;;0.28;0.28;;;;;;;17.20;69.41;99298.09;4874980;29;20040;-76
2024/02/11 10:41:18;;;;;;;1.25;1.20;;;;;;;17.43;69.35;99336.00;4873687;29;20045;-75
2024/02/11 10:43:44;;;;;;;8.88;1.88;;;;;;;16.87;68.29;99252.78;4874370;29;20056;-76
2024/02/11 10:46:10;;;;;;;0.75;0.75;;;;;;;17.38;68.04;99322.94;4872617;29;20077;-74
2024/02/11 10:48:36;;;;;;;0.55;0.55;;;;;;;17.41;68.30;99340.50;4875720;29;20446;-74
2024/02/11 10:51:10;;;;;;;2.10;1.17;;;;;;;17.50;67.20;99340.94;4874383;29;20041;-76
2024/02/11 10:53:37;;;;;;;2.13;1.95;;;;;;;16.97;66.95;99258.53;4865019;29;20060;-75
2024/02/11 10:56:05;;;;;;;1.65;1.15;;;;;;;17.44;66.93;99335.94;4873809;29;20052;-76
2024/02/11 10:58:36;;;;;;;3.08;1.40;;;;;;;16.88;66.32;99244.78;4870049;29;20049;-75
2024/02/11 11:01:04;;;;;;;1.15;1.05;;;;;;;16.88;65.65;99243.91;4873875;29;20514;-75
2024/02/11 11:03:36;;;;;;;1.73;0.70;;;;;;;17.41;65.06;99320.13;4873492;29;20057;-75
2024/02/11 11:06:03;;;;;;;0.75;0.52;;;;;;;17.35;64.58;99314.25;4874953;29;20064;-76
2024/02/11 11:08:30;;;;;;;1.50;1.40;;;;;;;17.48;64.38;99318.06;4873407;29;21276;-75
2024/02/11 11:10:59;;;;;;;0.40;0.40;;;;;;;17.57;65.64;99335.38;4867963;29;20037;-74
2024/02/11 11:13:25;;;;;;;1.42;0.90;;;;;;;17.61;65.17;99336.94;4872610;29;20143;-74
2024/02/11 11:15:52;;;;;;;1.42;0.88;;;;;;;17.33;65.44;99306.38;4873644;29;20068;-75
2024/02/11 11:18:23;;;;;;;9.93;2.30;;;;;;;17.43;65.88;99314.78;4873699;29;20088;-75
2024/02/11 11:20:53;;;;;;;1.02;0.70;;;;;;;17.16;66.18;99250.59;4866596;29;20051;-74
2024/02/11 11:23:19;;;;;;;0.77;0.73;;;;;;;17.48;66.17;99302.16;4871483;29;20064;-74
2024/02/11 11:25:44;;;;;;;0.63;0.63;;;;;;;17.16;66.01;99240.00;4873595;29;20440;-76